Ashland, MO

3:43 PM CST on February 07, 2016 (GMT -0600)
Columbia Regional | | Change Station
CLOSE
Current Station
Airport
Location: Columbia,
Elevation: 899 ft
Nearby Weather Stations

Elev 899 ft 38.82 °N, 92.22 °W | Updated 49 minutes ago

Partly Cloudy
Partly Cloudy
51 °F
Feels Like 51 °F
N
18
Wind Variable Wind from West
Gusts 26 mph

Today
High -- | Low -- °F
--% Chance of Precip.
Yesterday
High -- | Low -- °F
Precip. -- in
Pressure 29.94 in
Visibility 10.0 miles
Clouds Scattered Clouds 11000 ft
Dew Point 26 °F
Humidity 38%
Rainfall 0.00 in
Snow Depth Not available.
7:09 AM 5:36 PM
Waning Crescent, 1% visible
METAR KCOU 072054Z 28016G23KT 10SM SCT110 11/M03 A2993 RMK AO2 SLP137 T01061033 56013 $
Pressure 29.94 in
Visibility 10.0 miles
Clouds Scattered Clouds 11000 ft
Dew Point 26 °F
Humidity 38%
Rainfall 0.00 in
Snow Depth Not available.
7:09 AM 5:36 PM
Waning Crescent, 1% visible
METAR KCOU 072054Z 28016G23KT 10SM SCT110 11/M03 A2993 RMK AO2 SLP137 T01061033 56013 $

10-Day Weather Forecast

Almanac

Astronomy

Feb. 07, 2016 Rise Set
Actual Time
Civil Twilight
Nautical Twilight
Astronomical Twilight
Moon
Length of Visible Light
Length of Day
Tomorrow will be .
, % of the Moon is Illuminated

Today's Extremes

State Highs State Lows

Community

WunderPhotos

Upload Photos

1,891,304 photos uploaded!

WunderBlog® & News

Nearby

Air Quality

  Air Quality AQ Index Pollutant
Not available.

Snow Depth

Station Depth Elevation

Earthquake Activity

City Distance Mag. Time & Date
Minimum magnitude displayed is 2.5.

Coastal Water Temperatures

Place Temperature

Stations

Nearby Weather Stations

Station Location Temp. Windchill Dew Point Humidity Wind Precip. Elev Updated Type
                   

Watches & Warnings

There are currently no watches in effect.